KTDZ/TDZ METAR and TAF weather

Enter ICAO airport designator
Station Type Date Time Source
KTDZ METAR 2022/01/23 13:00 UTC NOAA

KTDZ 231300Z AUTO 00000KT 1SM -SN BR VV014 M04/M07 A2984 RMK AO2 P0001 T10441067


Station Type Date Time Source
KTDZ Decoded METAR 2022/01/23 13:00 UTC NOAA

TOLEDO METCALF FIELD, OH, United States (KTDZ) 41-34N 83-29W 189M
Jan 23, 2022 - 08:00 AM EST / 2022.01.23 1300 UTC
Wind: Calm:0
Visibility: 1 mile(s):0
Sky conditions: obscured
Weather: light snow; mist
Precipitation last hour: 0.01 inches
Temperature: 24.1 F (-4.4 C)
Dew Point: 19.9 F (-6.7 C)
Relative Humidity: 83%
Pressure (altimeter): 29.84 in. Hg (1010 hPa)
ob: KTDZ 231300Z AUTO 00000KT 1SM -SN BR VV014 M04/M07 A2984 RMK AO2 P0001 T10441067
cycle: 13

Station Type Date Time Source
KTDZ TAF UTC NOAA

Error!

Example: see airport list